Time;durP1;ratioP1;P1;durP2;ratioP2;P2;SDS_P1;SDS_P2;PMS_P1;PMS_P2;Temp;Humidity;BMP_temperature;BMP_pressure;BME280_temperature;BME280_humidity;BME280_pressure;Samples;Min_cycle;Max_cycle;Signal;HPM_P1;HPM_P2
2021/07/07 00:01:59;;;;;;;4.07;1.00;;;;;;;15.78;82.17;99703.66;3458983;41;20039;-80
2021/07/07 00:04:27;;;;;;;3.05;1.30;;;;;;;15.81;82.28;99714.03;3463266;41;20537;-81
2021/07/07 00:06:56;;;;;;;;;;;;;;;15.86;82.39;99720.78;3454101;41;20048;-81
2021/07/07 00:09:23;;;;;;;2.15;1.08;;;;;;;15.75;82.10;99703.84;3452346;41;20124;-81
2021/07/07 00:11:50;;;;;;;3.10;1.30;;;;;;;15.76;81.72;99718.72;3439479;41;20031;-81
2021/07/07 00:14:17;;;;;;;3.33;1.17;;;;;;;15.69;81.22;99711.25;3462411;41;20042;-81
2021/07/07 00:16:50;;;;;;;2.70;1.07;;;;;;;15.67;82.00;99719.25;3470353;41;20038;-80
2021/07/07 00:19:19;;;;;;;3.25;1.00;;;;;;;15.64;82.57;99715.97;3455125;41;20042;-81
2021/07/07 00:21:58;;;;;;;1.65;0.90;;;;;;;15.65;82.25;99721.13;3410286;41;20055;-80
2021/07/07 00:24:26;;;;;;;2.05;0.93;;;;;;;15.63;82.31;99730.91;3448070;41;20062;-80
2021/07/07 00:26:54;;;;;;;4.13;1.38;;;;;;;15.60;81.86;99720.50;3450725;41;20088;-81
2021/07/07 00:29:22;;;;;;;;;;;;;;;15.66;82.50;99730.72;3449209;41;20063;-81
2021/07/07 00:32:17;;;;;;;1.98;0.88;;;;;;;15.64;82.13;99732.59;3446671;41;19945;-80
2021/07/07 00:34:46;;;;;;;2.40;1.02;;;;;;;15.58;82.71;99733.78;3454175;41;20090;-80
2021/07/07 00:37:13;;;;;;;2.10;1.20;;;;;;;15.52;82.34;99734.13;3488313;41;20105;-81
2021/07/07 00:39:40;;;;;;;4.35;1.25;;;;;;;15.51;82.18;99732.44;3480251;41;20054;-81
2021/07/07 00:42:08;;;;;;;2.92;1.30;;;;;;;15.54;81.96;99741.94;3481903;41;20063;-81
2021/07/07 00:44:40;;;;;;;3.90;1.30;;;;;;;15.53;82.36;99741.09;3490665;41;20059;-81
2021/07/07 00:49:57;;;;;;;2.40;1.10;;;;;;;15.50;82.63;99751.78;3608303;23;20054;-80
2021/07/07 00:52:24;;;;;;;2.47;1.15;;;;;;;15.46;82.78;99749.41;3581916;40;20034;-81
2021/07/07 00:54:53;;;;;;;3.97;1.20;;;;;;;15.48;82.46;99752.81;3573535;40;20030;-81
2021/07/07 00:57:25;;;;;;;2.58;1.00;;;;;;;15.44;82.77;99748.66;3583015;40;20612;-81
2021/07/07 00:59:54;;;;;;;2.97;1.13;;;;;;;15.46;82.88;99755.56;3574602;40;20064;-80
2021/07/07 01:02:47;;;;;;;3.65;1.25;;;;;;;15.49;83.01;99765.03;3523102;40;20119;-81
2021/07/07 01:11:16;;;;;;;3.97;1.50;;;;;;;15.45;82.63;99785.41;3604953;23;20937;-81
2021/07/07 01:13:44;;;;;;;3.30;1.50;;;;;;;15.37;82.79;99781.53;3575461;40;20058;-81
2021/07/07 01:19:17;;;;;;;3.17;1.38;;;;;;;15.39;83.15;99784.91;3581173;40;20087;-81
2021/07/07 01:21:54;;;;;;;3.30;1.42;;;;;;;15.40;83.02;99783.97;3559887;40;20078;-81
2021/07/07 01:30:52;;;;;;;3.50;1.50;;;;;;;15.42;82.86;99795.28;3579952;23;20055;-80
2021/07/07 01:33:22;;;;;;;4.07;1.20;;;;;;;15.37;83.58;99799.94;3580027;23;20379;-80
2021/07/07 01:35:50;;;;;;;3.70;1.40;;;;;;;15.34;83.20;99795.69;3545243;40;20061;-81
2021/07/07 01:41:05;;;;;;;3.63;1.55;;;;;;;15.31;83.14;99788.84;3571245;40;20045;-80
2021/07/07 01:43:35;;;;;;;3.97;1.90;;;;;;;15.40;82.86;99791.88;3560869;40;20054;-81
2021/07/07 01:46:29;;;;;;;3.80;1.35;;;;;;;15.45;83.35;99802.97;3554343;40;20104;-80
2021/07/07 01:48:58;;;;;;;3.83;1.67;;;;;;;15.38;82.98;99799.84;3559263;40;20043;-79
2021/07/07 01:51:50;;;;;;;3.65;1.88;;;;;;;15.45;83.33;99805.59;3592388;23;20081;-80
2021/07/07 01:57:50;;;;;;;2.70;1.27;;;;;;;15.44;83.53;99811.81;3649400;23;20058;-80
2021/07/07 02:00:20;;;;;;;2.15;1.08;;;;;;;15.42;83.57;99816.31;3556234;40;20070;-81
2021/07/07 02:05:37;;;;;;;3.30;1.40;;;;;;;15.43;83.54;99813.59;1496340;23;20234;-80
2021/07/07 02:08:15;;;;;;;3.58;1.40;;;;;;;15.46;83.11;99817.81;3592364;23;20043;-81
2021/07/07 02:10:48;;;;;;;;;;;;;;;15.47;83.19;99822.16;3620931;23;20055;31
2021/07/07 02:13:30;;;;;;;2.97;1.40;;;;;;;15.44;82.48;99814.44;3603847;23;19987;-80
2021/07/07 02:16:05;;;;;;;4.90;2.00;;;;;;;15.42;82.36;99817.16;3637104;23;20050;-80
2021/07/07 02:18:36;;;;;;;3.33;1.65;;;;;;;15.31;82.82;99809.88;3615837;23;20063;-80
2021/07/07 02:21:27;;;;;;;3.65;1.50;;;;;;;15.37;82.85;99823.63;3631377;23;20047;-81
2021/07/07 02:23:55;;;;;;;2.90;1.40;;;;;;;15.26;83.28;99832.97;3565426;40;20662;-81
2021/07/07 02:26:25;;;;;;;3.55;1.77;;;;;;;15.29;83.13;99838.03;3640146;23;20411;-80
2021/07/07 02:28:56;;;;;;;3.13;1.52;;;;;;;15.26;83.33;99821.59;3570899;40;20335;-81
2021/07/07 02:36:59;;;;;;;3.95;1.50;;;;;;;15.13;83.12;99810.91;3581238;40;20465;-81
2021/07/07 02:42:17;;;;;;;3.60;1.58;;;;;;;15.26;82.38;99837.38;3583114;40;20013;-80
2021/07/07 02:44:44;;;;;;;2.78;1.42;;;;;;;15.18;83.06;99829.91;3539525;40;21497;-80
2021/07/07 02:50:18;;;;;;;3.97;1.30;;;;;;;15.23;82.75;99848.06;3561274;40;20049;-81
2021/07/07 02:55:37;;;;;;;3.50;1.10;;;;;;;15.17;82.50;99854.50;3571381;40;20089;-81
2021/07/07 03:00:55;;;;;;;4.20;1.52;;;;;;;15.16;83.10;99868.59;3675095;23;20045;-80
2021/07/07 03:03:40;;;;;;;3.08;1.40;;;;;;;15.18;83.04;99865.88;3637446;23;20046;-80
2021/07/07 03:06:11;;;;;;;2.10;1.10;;;;;;;15.12;83.72;99867.06;3573486;23;20033;-80
2021/07/07 03:12:11;;;;;;;2.05;1.02;;;;;;;15.22;83.83;99877.94;3668181;23;20065;-81
2021/07/07 03:15:10;;;;;;;5.32;1.48;;;;;;;15.22;83.96;99873.50;3600375;23;20523;-81
2021/07/07 03:17:39;;;;;;;2.42;1.05;;;;;;;15.18;83.81;99869.34;3576380;40;20104;-81
2021/07/07 03:26:03;;;;;;;6.13;0.85;;;;;;;15.31;83.84;99883.53;3592912;40;19956;-80
2021/07/07 03:31:20;;;;;;;2.35;1.10;;;;;;;15.17;83.57;99862.41;3697921;23;19933;-81
2021/07/07 03:34:11;;;;;;;4.75;1.52;;;;;;;15.42;83.77;99900.50;3670583;23;20068;31
2021/07/07 03:36:39;;;;;;;2.65;1.27;;;;;;;15.34;83.10;99895.66;3588723;23;20092;-81
2021/07/07 03:39:06;;;;;;;5.57;1.55;;;;;;;15.37;83.49;99902.53;3607292;23;20040;-81
2021/07/07 03:44:39;;;;;;;5.57;1.42;;;;;;;15.47;83.59;99920.38;3615829;23;20050;-80
2021/07/07 03:49:39;;;;;;;3.50;1.38;;;;;;;15.42;83.30;99916.28;3582392;40;20036;-80
2021/07/07 03:52:32;;;;;;;2.97;1.40;;;;;;;15.50;83.48;99927.22;3645377;23;20042;-81
2021/07/07 04:04:36;;;;;;;3.75;1.33;;;;;;;15.58;83.43;99946.09;792425;23;20261;-81
2021/07/07 04:07:03;;;;;;;4.45;1.27;;;;;;;15.55;82.77;99948.88;3582644;40;20017;-81
2021/07/07 04:09:31;;;;;;;4.10;1.27;;;;;;;15.56;83.01;99945.31;3580306;40;20785;-81
2021/07/07 04:12:03;;;;;;;2.97;1.48;;;;;;;15.56;82.92;99951.44;3576693;40;20084;-81
2021/07/07 04:14:40;;;;;;;2.63;1.20;;;;;;;15.61;83.38;99950.31;3596994;23;20034;31
2021/07/07 04:17:08;;;;;;;2.97;1.20;;;;;;;15.49;82.68;99938.69;3609528;23;20044;-81
2021/07/07 04:19:43;;;;;;;2.83;1.30;;;;;;;15.64;83.19;99964.19;3611188;23;20018;-80
2021/07/07 04:22:10;;;;;;;3.22;1.10;;;;;;;15.57;82.88;99960.19;3551977;40;20027;-81
2021/07/07 04:24:39;;;;;;;3.85;1.35;;;;;;;15.63;82.62;99973.03;3597366;23;20036;-81
2021/07/07 04:33:41;;;;;;;4.22;1.70;;;;;;;15.72;83.18;99967.25;3637886;23;20050;-81
2021/07/07 04:39:12;;;;;;;3.53;1.50;;;;;;;15.55;83.04;99944.47;1033125;23;21203;-80
2021/07/07 04:41:49;;;;;;;3.05;1.40;;;;;;;15.73;82.70;99973.38;1198322;23;20293;-80
2021/07/07 04:47:21;;;;;;;2.78;1.20;;;;;;;15.62;82.85;99966.03;3701992;23;20463;-81
2021/07/07 04:49:55;;;;;;;;;;;;;;;15.77;83.20;99986.28;3640008;23;20514;-80
2021/07/07 04:52:47;;;;;;;3.90;1.63;;;;;;;15.77;82.91;99986.28;3637089;23;19957;-80
2021/07/07 04:58:17;;;;;;;3.50;1.40;;;;;;;15.77;82.91;99991.53;1173577;23;20273;-80
2021/07/07 05:00:59;;;;;;;5.53;1.70;;;;;;;15.77;82.50;99986.28;3639044;23;20048;-81
2021/07/07 05:03:25;;;;;;;3.53;1.48;;;;;;;15.72;81.90;99977.78;3571624;40;20320;-81
2021/07/07 05:05:52;;;;;;;3.65;1.50;;;;;;;15.73;82.18;99973.38;3554639;40;20066;-80
2021/07/07 05:08:20;;;;;;;4.50;1.70;;;;;;;15.71;82.87;99970.84;3562242;40;20921;-80
2021/07/07 05:13:42;;;;;;;5.20;1.55;;;;;;;15.80;82.60;99995.78;3650788;23;20038;-80
2021/07/07 05:16:09;;;;;;;3.63;1.48;;;;;;;15.80;82.20;100001.03;3570032;40;20053;-81
2021/07/07 05:21:24;;;;;;;6.53;1.65;;;;;;;15.81;82.46;100003.63;3580769;40;20052;-80
2021/07/07 05:23:54;;;;;;;4.37;1.77;;;;;;;15.92;82.83;100017.97;3609886;23;20042;-80
2021/07/07 05:26:26;;;;;;;6.32;1.60;;;;;;;15.87;83.12;100006.84;3559440;40;20046;-80
2021/07/07 05:37:49;;;;;;;4.10;1.50;;;;;;;16.09;83.06;100028.38;3623495;23;20041;31
2021/07/07 05:40:19;;;;;;;7.55;1.77;;;;;;;16.07;82.99;100031.13;3559868;40;20084;-81
2021/07/07 05:42:52;;;;;;;4.78;1.63;;;;;;;16.15;83.23;100037.72;3625677;23;20042;-81
2021/07/07 05:45:26;;;;;;;5.35;2.10;;;;;;;16.15;82.54;100040.38;3647151;23;20057;-81
2021/07/07 05:51:06;;;;;;;5.47;2.13;;;;;;;16.28;83.06;100050.13;3708774;23;20049;-81
2021/07/07 05:54:05;;;;;;;4.63;2.10;;;;;;;16.32;82.86;100054.28;3601566;23;20017;-81
2021/07/07 05:57:05;;;;;;;6.40;2.10;;;;;;;16.37;83.00;100064.53;3559263;23;20036;-80
2021/07/07 05:59:59;;;;;;;5.93;2.60;;;;;;;16.44;83.40;100080.88;3568968;40;20026;-81
2021/07/07 06:02:25;;;;;;;6.13;1.95;;;;;;;16.36;82.44;100070.75;3570947;40;20079;-81
2021/07/07 06:04:54;;;;;;;5.53;2.10;;;;;;;16.42;82.71;100069.56;3575393;40;20026;-81
2021/07/07 06:07:24;;;;;;;5.32;2.33;;;;;;;16.45;82.72;100075.50;3557746;40;20046;-81
2021/07/07 06:12:34;;;;;;;5.60;2.28;;;;;;;16.38;82.12;100062.78;3574541;40;20020;-80
2021/07/07 06:20:58;;;;;;;7.25;2.50;;;;;;;16.62;82.03;100085.09;3567126;40;20038;-81
2021/07/07 06:23:24;;;;;;;6.60;3.33;;;;;;;16.65;82.14;100092.81;3559904;40;20478;-81
2021/07/07 06:25:58;;;;;;;5.57;2.67;;;;;;;16.72;82.14;100094.19;3555255;40;20026;-81
2021/07/07 06:28:29;;;;;;;5.95;2.42;;;;;;;16.77;81.91;100110.59;3553856;40;20381;-81
2021/07/07 06:30:58;;;;;;;7.60;3.30;;;;;;;16.79;82.62;100103.47;3557130;40;20033;-81
2021/07/07 06:36:29;;;;;;;6.00;2.88;;;;;;;16.88;82.26;100111.75;3571205;40;20046;-81
2021/07/07 06:38:56;;;;;;;7.00;2.85;;;;;;;16.89;82.13;100105.56;3568920;40;20034;-81
2021/07/07 06:41:26;;;;;;;6.47;2.97;;;;;;;16.89;82.71;100093.22;3604385;23;20030;-81
2021/07/07 06:43:53;;;;;;;7.13;3.05;;;;;;;17.00;82.16;100111.91;3547516;40;20083;-81
2021/07/07 06:46:24;;;;;;;8.82;4.22;;;;;;;17.09;82.27;100113.16;3555221;40;20446;-82
2021/07/07 06:48:51;;;;;;;9.30;3.72;;;;;;;17.15;81.26;100123.34;3551305;40;21321;-81
2021/07/07 06:51:21;;;;;;;10.02;4.47;;;;;;;17.22;81.07;100123.81;3524403;40;20023;-81
2021/07/07 06:53:50;;;;;;;8.40;4.25;;;;;;;17.25;81.22;100129.78;3550296;40;20064;-80
2021/07/07 06:56:17;;;;;;;8.38;3.60;;;;;;;17.28;81.21;100137.50;3539280;40;20085;-81
2021/07/07 06:58:44;;;;;;;11.23;4.55;;;;;;;17.31;80.69;100136.47;3495623;40;20377;-81
2021/07/07 07:03:44;;;;;;;9.45;4.55;;;;;;;17.38;80.40;100137.81;3548102;40;20266;-79
2021/07/07 07:06:13;;;;;;;11.85;5.45;;;;;;;17.47;79.82;100142.53;3526039;40;20062;-80
2021/07/07 07:08:41;;;;;;;10.27;5.45;;;;;;;17.47;80.59;100152.25;3497316;40;20034;-80
2021/07/07 07:11:10;;;;;;;9.05;4.72;;;;;;;17.47;80.82;100153.09;3537163;40;20141;-80
2021/07/07 07:13:37;;;;;;;11.68;5.85;;;;;;;17.51;80.75;100156.41;3530496;40;20061;-80
2021/07/07 07:16:06;;;;;;;8.80;4.35;;;;;;;17.58;81.33;100152.44;3516024;40;20103;-80
2021/07/07 07:18:33;;;;;;;10.60;4.78;;;;;;;17.59;80.46;100154.16;3543943;40;20061;-81
2021/07/07 07:21:00;;;;;;;9.10;4.97;;;;;;;17.68;79.97;100164.16;3507590;40;20058;-80
2021/07/07 07:23:29;;;;;;;9.60;4.93;;;;;;;17.71;80.24;100158.69;3546629;40;22542;-80
2021/07/07 07:26:02;;;;;;;9.20;4.20;;;;;;;17.77;81.02;100166.25;3526136;40;20058;-79
2021/07/07 07:28:33;;;;;;;7.97;4.32;;;;;;;17.91;80.88;100178.63;3498556;40;20385;-80
2021/07/07 07:31:08;;;;;;;9.93;4.13;;;;;;;17.99;80.94;100197.50;3492784;40;21807;-80
2021/07/07 07:33:35;;;;;;;12.32;5.22;;;;;;;17.97;78.54;100194.09;3494768;40;20076;-79
2021/07/07 07:36:24;;;;;;;12.57;4.82;;;;;;;18.09;79.17;100210.97;3509195;40;20506;-81
2021/07/07 07:39:04;;;;;;;7.47;3.95;;;;;;;18.08;79.52;100206.66;3513340;40;20069;-80
2021/07/07 07:41:38;;;;;;;11.10;5.10;;;;;;;18.15;78.57;100222.06;3538006;40;20117;-81
2021/07/07 07:44:08;;;;;;;10.40;5.13;;;;;;;18.11;78.13;100214.41;3542301;40;20062;-80
2021/07/07 07:46:38;;;;;;;12.00;5.93;;;;;;;18.16;78.68;100225.53;3548596;40;20787;-79
2021/07/07 07:49:10;;;;;;;10.43;5.82;;;;;;;18.16;78.00;100228.19;3525425;40;20428;-80
2021/07/07 07:51:38;;;;;;;9.65;4.50;;;;;;;18.13;78.99;100225.72;3540820;40;20077;-80
2021/07/07 07:54:07;;;;;;;9.98;4.80;;;;;;;18.18;79.21;100239.50;3521591;40;20491;-80
2021/07/07 07:56:33;;;;;;;8.82;4.82;;;;;;;18.18;77.67;100234.22;3503123;40;20140;-81
2021/07/07 07:59:07;;;;;;;8.90;5.33;;;;;;;18.27;80.08;100233.66;3533400;40;20050;-81
2021/07/07 08:01:34;;;;;;;8.50;4.85;;;;;;;18.32;78.91;100255.34;3510815;40;20042;-80
2021/07/07 08:04:04;;;;;;;8.55;4.63;;;;;;;18.42;79.01;100255.63;3528772;40;20079;-80
2021/07/07 08:06:37;;;;;;;13.95;4.90;;;;;;;18.54;78.99;100267.22;3523898;40;20062;-80
2021/07/07 08:09:09;;;;;;;7.85;4.30;;;;;;;18.60;79.46;100272.13;3514895;40;20335;-81
2021/07/07 08:11:36;;;;;;;11.23;5.22;;;;;;;18.59;76.25;100276.56;3482176;40;20481;-81
2021/07/07 08:14:04;;;;;;;8.13;4.97;;;;;;;18.67;77.35;100279.59;3507310;40;20489;-81
2021/07/07 08:16:31;;;;;;;;;;;;;;;18.84;81.19;100283.00;3523519;40;20060;-80
2021/07/07 08:19:00;;;;;;;8.15;3.67;;;;;;;18.81;78.30;100276.13;3507125;40;20034;-80
2021/07/07 08:21:26;;;;;;;9.77;4.90;;;;;;;18.85;75.81;100282.03;3512285;40;20083;-80
2021/07/07 08:23:54;;;;;;;7.22;3.92;;;;;;;18.95;77.76;100290.25;3547788;40;20060;-80
2021/07/07 08:26:23;;;;;;;8.63;5.15;;;;;;;19.03;76.70;100288.81;3523185;40;20424;-80
2021/07/07 08:28:50;;;;;;;7.10;3.97;;;;;;;19.13;76.59;100297.00;3523264;40;20157;-81
2021/07/07 08:31:26;;;;;;;7.70;4.43;;;;;;;19.32;78.76;100300.16;3544471;40;20054;-81
2021/07/07 08:33:56;;;;;;;9.68;4.90;;;;;;;19.42;77.31;100298.63;3489141;40;20760;-80
2021/07/07 08:36:26;;;;;;;8.45;4.47;;;;;;;19.53;77.39;100307.66;3546580;40;20070;-80
2021/07/07 08:38:56;;;;;;;9.63;5.30;;;;;;;19.71;76.11;100311.72;3552951;40;20732;-80
2021/07/07 08:41:28;;;;;;;10.15;5.97;;;;;;;19.77;76.10;100306.06;3505558;40;20057;-80
2021/07/07 08:43:54;;;;;;;10.27;4.78;;;;;;;19.92;75.03;100312.97;3545597;40;20525;-79
2021/07/07 08:46:24;;;;;;;9.60;5.68;;;;;;;20.11;76.36;100317.00;3552197;40;20053;-80
2021/07/07 08:48:51;;;;;;;8.85;5.78;;;;;;;20.17;75.17;100319.22;3544787;40;20525;-80
2021/07/07 08:51:18;;;;;;;8.85;4.43;;;;;;;20.29;74.34;100321.03;3548806;40;20105;-80
2021/07/07 08:53:47;;;;;;;8.95;5.53;;;;;;;20.40;73.76;100315.84;3552412;40;20074;-80
2021/07/07 08:56:14;;;;;;;11.27;5.65;;;;;;;20.50;74.19;100318.72;3545396;40;20057;-81
2021/07/07 08:58:41;;;;;;;9.63;5.85;;;;;;;20.62;71.63;100322.31;3548880;40;20094;-80
2021/07/07 09:01:08;;;;;;;10.38;5.15;;;;;;;20.61;73.31;100310.00;3551978;40;20058;-80
2021/07/07 09:03:45;;;;;;;9.77;5.75;;;;;;;20.87;74.39;100327.56;3527976;40;20062;-80
2021/07/07 09:06:13;;;;;;;8.77;4.87;;;;;;;20.94;72.74;100339.47;3543730;40;20053;-81
2021/07/07 09:08:46;;;;;;;8.60;4.50;;;;;;;21.09;73.64;100328.72;3531879;40;22330;-81
2021/07/07 09:11:16;;;;;;;8.85;4.35;;;;;;;21.22;70.70;100343.63;3533129;40;20066;-80
2021/07/07 09:13:46;;;;;;;9.02;4.82;;;;;;;21.36;69.56;100345.31;3564905;40;20057;-81
2021/07/07 09:16:15;;;;;;;11.15;4.90;;;;;;;21.47;70.67;100353.31;3544800;40;20135;-80
2021/07/07 09:18:44;;;;;;;9.73;4.50;;;;;;;21.53;69.55;100356.50;3549163;40;20065;-80
2021/07/07 09:21:28;;;;;;;9.32;4.72;;;;;;;21.64;72.41;100349.41;3558554;40;20061;-80
2021/07/07 09:24:01;;;;;;;6.50;3.67;;;;;;;21.70;72.29;100358.75;3544046;40;20522;-80
2021/07/07 09:26:35;;;;;;;7.35;4.38;;;;;;;21.76;72.60;100360.97;3547894;40;20050;-81
2021/07/07 09:29:02;;;;;;;8.65;4.57;;;;;;;21.72;67.69;100356.81;3528850;40;20066;-81
2021/07/07 09:31:41;;;;;;;8.48;4.53;;;;;;;21.88;71.56;100360.03;3551181;40;20066;-80
2021/07/07 09:34:22;;;;;;;7.18;4.20;;;;;;;22.06;73.53;100359.63;3535578;40;20465;-80
2021/07/07 09:36:54;;;;;;;7.18;4.38;;;;;;;21.99;67.00;100338.78;3536008;40;20069;-80
2021/07/07 09:39:23;;;;;;;7.05;3.85;;;;;;;22.34;70.72;100359.19;3551784;40;20424;-80
2021/07/07 09:41:52;;;;;;;9.27;5.13;;;;;;;22.51;66.92;100360.56;3541354;40;20078;-81
2021/07/07 09:44:19;;;;;;;9.27;5.13;;;;;;;22.69;68.40;100352.94;3543830;40;20066;-80
2021/07/07 09:46:48;;;;;;;10.07;4.35;;;;;;;22.84;69.87;100349.06;3544548;40;20080;-79
2021/07/07 09:49:25;;;;;;;8.65;4.90;;;;;;;23.12;70.70;100360.22;3549318;40;20081;-80
2021/07/07 09:51:52;;;;;;;9.13;4.07;;;;;;;23.15;66.82;100375.94;3542632;40;20091;-80
2021/07/07 09:54:21;;;;;;;35.50;8.18;;;;;;;23.32;67.25;100372.78;3555460;40;20050;-80
2021/07/07 09:57:13;;;;;;;7.38;3.88;;;;;;;23.48;70.57;100373.22;3550516;40;20445;-80
2021/07/07 09:59:43;;;;;;;7.55;4.28;;;;;;;23.42;67.09;100375.53;3541937;40;20121;-80
2021/07/07 10:02:10;;;;;;;10.30;5.28;;;;;;;23.37;65.33;100386.59;3545380;40;20046;-80
2021/07/07 10:04:39;;;;;;;8.70;5.30;;;;;;;23.39;65.52;100395.28;3558516;40;20062;-80
2021/07/07 10:07:14;;;;;;;7.88;4.00;;;;;;;23.41;66.79;100404.00;3547615;40;20057;-80
2021/07/07 10:09:46;;;;;;;9.38;4.13;;;;;;;23.36;68.29;100405.34;3547261;40;20057;-80
2021/07/07 10:12:13;;;;;;;8.48;4.57;;;;;;;23.30;66.05;100414.66;3551631;40;20065;-80
2021/07/07 10:15:07;;;;;;;7.72;4.70;;;;;;;23.31;70.03;100421.69;3560363;40;20132;-79
2021/07/07 10:17:38;;;;;;;8.13;4.30;;;;;;;23.16;64.97;100414.94;3533256;40;20058;-80
2021/07/07 10:20:08;;;;;;;10.02;5.25;;;;;;;23.10;63.53;100423.41;3540218;40;20089;-80
2021/07/07 10:22:37;;;;;;;8.00;5.00;;;;;;;23.01;64.27;100423.19;3546902;40;20054;-80
2021/07/07 10:25:08;;;;;;;8.43;4.90;;;;;;;23.00;63.00;100432.13;3548893;40;20050;-80
2021/07/07 10:27:37;;;;;;;7.32;4.32;;;;;;;22.92;63.42;100429.25;3550262;40;20702;-80
2021/07/07 10:30:09;;;;;;;7.20;3.92;;;;;;;22.99;66.83;100433.09;3548398;40;20097;-80
2021/07/07 10:32:37;;;;;;;8.07;4.57;;;;;;;22.91;63.42;100426.69;3537392;40;20073;-81
2021/07/07 10:35:10;;;;;;;7.10;4.50;;;;;;;22.99;66.98;100429.59;3553252;40;20058;-80
2021/07/07 10:37:41;;;;;;;10.25;4.90;;;;;;;23.00;64.99;100442.78;3538543;40;20106;-80
2021/07/07 10:40:27;;;;;;;7.47;4.18;;;;;;;23.13;68.76;100440.00;3551600;40;20054;-80
2021/07/07 10:42:56;;;;;;;8.48;4.47;;;;;;;23.14;63.29;100438.19;3544595;40;20129;-80
2021/07/07 10:45:32;;;;;;;8.15;4.00;;;;;;;23.26;65.94;100447.84;3549180;40;20054;-81
2021/07/07 10:48:28;;;;;;;7.32;4.10;;;;;;;23.38;67.86;100452.22;3551099;40;20082;-80
2021/07/07 10:50:58;;;;;;;5.93;3.40;;;;;;;23.42;65.58;100459.00;3550878;40;20576;-80
2021/07/07 10:53:44;;;;;;;6.70;4.10;;;;;;;23.62;67.53;100465.41;3537363;40;20066;-81
2021/07/07 10:56:11;;;;;;;6.65;3.75;;;;;;;23.67;61.22;100463.22;3543590;40;20062;-81
2021/07/07 10:58:41;;;;;;;6.05;3.55;;;;;;;23.82;63.79;100455.78;3546478;40;20050;-81
2021/07/07 11:01:30;;;;;;;8.25;4.45;;;;;;;24.15;69.25;100460.16;3555020;40;20071;-81
2021/07/07 11:03:59;;;;;;;6.80;4.45;;;;;;;24.25;57.62;100463.75;3528272;40;20591;-80
2021/07/07 11:06:28;;;;;;;7.55;4.57;;;;;;;24.47;58.28;100468.16;3539503;40;20416;-80
2021/07/07 11:09:12;;;;;;;7.47;4.47;;;;;;;24.81;66.00;100465.28;3553649;40;20548;-81
2021/07/07 11:11:46;;;;;;;8.32;4.93;;;;;;;25.05;64.03;100479.19;3545333;40;20070;-81
2021/07/07 11:14:25;;;;;;;6.88;4.38;;;;;;;25.41;66.08;100474.28;3540724;40;20073;-81
2021/07/07 11:17:00;;;;;;;9.00;4.93;;;;;;;25.68;61.96;100478.16;3533079;40;20054;-80
2021/07/07 11:19:48;;;;;;;7.47;3.92;;;;;;;26.02;65.76;100478.69;3542914;40;20081;-80
2021/07/07 11:22:18;;;;;;;8.77;4.93;;;;;;;26.28;55.21;100479.81;3547785;40;20110;-80
2021/07/07 11:24:50;;;;;;;7.75;4.93;;;;;;;26.79;56.07;100491.19;3545741;40;20093;-80
2021/07/07 11:27:18;;;;;;;6.00;4.15;;;;;;;27.09;53.88;100490.97;3552964;40;20644;-80
2021/07/07 11:29:47;;;;;;;6.63;4.03;;;;;;;27.37;57.32;100491.00;3552229;40;20057;-81
2021/07/07 11:32:41;;;;;;;7.05;5.00;;;;;;;27.65;52.82;100500.75;3545623;40;20104;-81
2021/07/07 11:35:31;;;;;;;6.50;4.47;;;;;;;27.83;58.81;100499.94;3538169;40;20068;-81
2021/07/07 11:38:05;;;;;;;6.72;4.55;;;;;;;27.74;54.24;100500.88;3541283;40;20505;-81
2021/07/07 11:40:39;;;;;;;8.35;4.13;;;;;;;27.57;52.04;100515.88;3542637;40;20066;-81
2021/07/07 11:43:07;;;;;;;4.75;3.10;;;;;;;27.24;52.45;100501.25;3543917;40;20097;-81
2021/07/07 11:45:42;;;;;;;5.20;3.33;;;;;;;27.14;53.65;100520.03;3552076;40;20056;-81
2021/07/07 11:48:26;;;;;;;5.65;3.10;;;;;;;26.90;51.73;100523.16;3527695;40;20484;-81
2021/07/07 11:50:57;;;;;;;4.45;2.88;;;;;;;26.74;50.80;100518.41;3543022;40;20109;-80
2021/07/07 11:53:40;;;;;;;4.75;2.67;;;;;;;26.63;57.31;100524.75;3551137;40;20083;-81
2021/07/07 11:56:30;;;;;;;5.32;3.25;;;;;;;26.46;51.35;100521.94;3543412;40;20057;-80
2021/07/07 11:58:59;;;;;;;6.32;3.47;;;;;;;26.32;50.65;100525.88;3543045;40;20110;-81
2021/07/07 12:01:35;;;;;;;4.93;2.80;;;;;;;26.25;57.60;100527.41;3554878;40;20054;-80
2021/07/07 12:04:07;;;;;;;5.57;3.15;;;;;;;26.18;54.86;100537.00;3542320;40;20137;-81
2021/07/07 12:06:40;;;;;;;6.25;3.20;;;;;;;26.06;56.28;100526.44;3536440;40;20065;-80
2021/07/07 12:09:16;;;;;;;4.93;3.20;;;;;;;26.08;53.51;100540.50;3547333;40;20365;-80
2021/07/07 12:11:51;;;;;;;5.15;2.88;;;;;;;26.18;57.01;100545.03;3533610;40;20088;-81
2021/07/07 12:14:26;;;;;;;6.85;3.58;;;;;;;26.24;56.24;100556.00;3533321;40;20120;-81
2021/07/07 12:16:55;;;;;;;8.68;3.83;;;;;;;26.25;50.77;100543.47;3541208;40;20425;-81
2021/07/07 12:19:23;;;;;;;6.63;3.58;;;;;;;26.26;53.50;100556.75;3548376;40;20144;-80
2021/07/07 12:21:58;;;;;;;6.75;3.22;;;;;;;26.30;52.92;100551.94;3544042;40;20574;-80
2021/07/07 12:24:51;;;;;;;5.70;2.78;;;;;;;26.54;60.03;100560.44;3541206;40;20447;-80
2021/07/07 12:27:21;;;;;;;5.65;3.00;;;;;;;26.49;53.55;100546.63;3546544;40;20066;-80
2021/07/07 12:29:50;;;;;;;5.55;3.13;;;;;;;26.72;54.63;100551.69;3555292;40;20140;-80
2021/07/07 12:32:27;;;;;;;6.28;3.70;;;;;;;26.92;54.64;100558.72;3554336;40;20058;-81
2021/07/07 12:34:58;;;;;;;6.30;3.50;;;;;;;27.01;48.33;100565.88;3537615;40;20058;-81
2021/07/07 12:37:32;;;;;;;6.53;3.42;;;;;;;27.16;53.29;100551.06;3549561;40;20088;-81
2021/07/07 12:40:08;;;;;;;21.20;5.25;;;;;;;27.20;50.50;100562.34;3540833;40;20106;-80
2021/07/07 12:43:16;;;;;;;6.75;2.85;;;;;;;27.22;56.36;100562.19;3553840;40;20050;-81
2021/07/07 12:45:49;;;;;;;5.97;3.08;;;;;;;27.18;54.01;100563.50;3546900;40;20058;-81
2021/07/07 12:48:16;;;;;;;4.22;2.63;;;;;;;27.05;49.92;100564.59;3542136;40;20062;-81
2021/07/07 12:50:47;;;;;;;6.85;2.95;;;;;;;27.15;52.01;100580.69;3545921;40;20104;-81
2021/07/07 12:53:14;;;;;;;7.03;3.38;;;;;;;27.05;49.35;100569.97;3545321;40;20062;-81
2021/07/07 12:55:41;;;;;;;4.72;2.90;;;;;;;27.02;49.16;100574.78;3554737;40;20082;-80
2021/07/07 12:58:10;;;;;;;5.25;2.97;;;;;;;27.04;49.31;100584.34;3555134;40;20837;-80
2021/07/07 13:00:43;;;;;;;5.25;2.88;;;;;;;26.96;51.47;100583.38;3547082;40;20420;-80
2021/07/07 13:03:12;;;;;;;5.28;3.20;;;;;;;26.76;48.82;100579.88;3541317;40;20054;-81
2021/07/07 13:05:50;;;;;;;4.95;2.88;;;;;;;26.74;53.87;100587.22;3552394;40;20062;-80
2021/07/07 13:08:46;;;;;;;4.78;3.00;;;;;;;26.64;53.77;100573.81;3549710;40;20160;-81
2021/07/07 13:11:17;;;;;;;4.78;2.95;;;;;;;26.72;51.11;100578.50;3549558;40;20058;-80
2021/07/07 13:13:54;;;;;;;4.50;2.88;;;;;;;26.82;52.06;100587.38;3540946;40;20096;-80
2021/07/07 13:16:29;;;;;;;4.53;2.70;;;;;;;26.89;55.76;100585.78;3540452;40;20073;-80
2021/07/07 13:19:05;;;;;;;5.68;3.35;;;;;;;27.16;52.68;100593.94;3544726;40;20077;-80
2021/07/07 13:21:38;;;;;;;9.70;4.50;;;;;;;27.35;52.88;100589.53;3539921;40;20053;-80
2021/07/07 13:24:26;;;;;;;8.88;4.50;;;;;;;27.58;52.07;100598.91;3544731;40;20152;-81
2021/07/07 13:27:00;;;;;;;8.40;4.50;;;;;;;27.96;52.34;100599.75;3542036;40;20070;-81
2021/07/07 13:29:39;;;;;;;6.20;4.13;;;;;;;28.16;52.25;100595.97;3544577;40;20058;-81
2021/07/07 13:32:14;;;;;;;7.60;4.90;;;;;;;28.30;51.25;100594.59;3538943;40;20062;-80
2021/07/07 13:34:56;;;;;;;6.80;4.47;;;;;;;28.53;53.37;100599.53;3539075;40;20066;-80
2021/07/07 13:37:26;;;;;;;7.93;4.38;;;;;;;28.70;49.15;100596.88;3538086;40;20078;-81
2021/07/07 13:39:56;;;;;;;6.95;3.92;;;;;;;28.97;46.18;100591.56;3539732;40;20058;-81
2021/07/07 13:42:25;;;;;;;8.10;4.75;;;;;;;29.37;47.82;100591.00;3531711;40;20069;-80
2021/07/07 13:44:58;;;;;;;6.78;3.22;;;;;;;29.86;49.92;100599.34;3547294;40;20050;-80
2021/07/07 13:47:27;;;;;;;8.30;3.97;;;;;;;30.15;45.23;100589.00;3549691;40;20075;-80
2021/07/07 13:49:55;;;;;;;7.20;4.35;;;;;;;30.58;42.78;100591.63;3539434;40;20054;-81
2021/07/07 13:52:22;;;;;;;8.23;4.25;;;;;;;30.92;41.82;100586.06;3547982;40;20140;-81
2021/07/07 13:54:51;;;;;;;7.78;4.30;;;;;;;31.34;43.43;100593.16;3543099;40;20766;-80